createdAt,value
2023-04-12T00:00:12.160Z,98333.77
2023-04-12T00:05:14.400Z,98331.41
2023-04-12T00:10:16.532Z,98330.06
2023-04-12T00:15:18.433Z,98327.35
2023-04-12T00:20:20.427Z,98328.95
2023-04-12T00:25:22.364Z,98327.36
2023-04-12T00:30:24.554Z,98324.41
2023-04-12T00:35:26.474Z,98320.08
2023-04-12T00:40:28.437Z,98317.80
2023-04-12T00:45:32.157Z,98313.17
2023-04-12T00:50:37.298Z,98313.21
2023-04-12T00:55:42.158Z,98310.59
2023-04-12T01:00:50.129Z,98308.10
2023-04-12T01:06:32.277Z,98308.92
2023-04-12T01:12:08.911Z,98310.37
2023-04-12T01:17:21.103Z,98310.70
2023-04-12T01:22:33.488Z,98316.19
2023-04-12T01:27:42.365Z,98315.80
2023-04-12T01:32:47.837Z,98317.96
2023-04-12T01:37:49.934Z,98310.46
2023-04-12T01:42:52.143Z,98309.61
2023-04-12T01:47:56.425Z,98308.41
2023-04-12T01:53:18.546Z,98310.48
2023-04-12T01:58:22.392Z,98307.42
2023-04-12T02:03:24.819Z,98301.97
2023-04-12T02:08:27.126Z,98301.19
2023-04-12T02:13:29.208Z,98300.48
2023-04-12T02:18:31.447Z,98292.55
2023-04-12T02:23:33.699Z,98294.95
2023-04-12T02:28:37.390Z,98293.60
2023-04-12T02:33:41.335Z,98295.59
2023-04-12T02:38:44.291Z,98294.47
2023-04-12T02:43:46.965Z,98292.21
2023-04-12T02:48:49.359Z,98291.91
2023-04-12T02:53:52.808Z,98287.75
2023-04-12T02:58:57.689Z,98285.31
2023-04-12T03:04:11.231Z,98284.45
2023-04-12T03:09:20.512Z,98285.77
2023-04-12T03:14:22.597Z,98290.41
2023-04-12T03:19:24.956Z,98292.61
2023-04-12T03:24:30.041Z,98292.46
2023-04-12T03:29:32.434Z,98291.60
2023-04-12T03:34:35.558Z,98292.71
2023-04-12T03:39:47.896Z,98288.02
2023-04-12T03:44:54.018Z,98284.95
2023-04-12T03:55:09.840Z,98278.45
2023-04-12T04:00:13.880Z,98277.27
2023-04-12T04:05:33.557Z,98273.73
2023-04-12T04:10:36.390Z,98273.55
2023-04-12T04:15:38.795Z,98269.63
2023-04-12T04:20:40.608Z,98265.52
2023-04-12T04:25:45.018Z,98265.39
2023-04-12T04:30:48.617Z,98267.58
2023-04-12T04:35:52.403Z,98270.14
2023-04-12T04:40:59.873Z,98279.26
2023-04-12T04:46:08.118Z,98285.32
2023-04-12T04:51:10.218Z,98285.45
2023-04-12T04:56:12.395Z,98291.44
2023-04-12T05:01:16.946Z,98302.88
2023-04-12T05:06:20.044Z,98311.95
2023-04-12T05:11:22.076Z,98318.21
2023-04-12T05:16:24.733Z,98324.35
2023-04-12T05:21:27.325Z,98317.84
2023-04-12T05:26:29.439Z,98314.49
2023-04-12T05:31:33.045Z,98307.88
2023-04-12T05:36:37.874Z,98307.66
2023-04-12T05:41:39.636Z,98309.31
2023-04-12T05:46:41.700Z,98316.80
2023-04-12T05:51:43.750Z,98318.13
2023-04-12T05:56:57.293Z,98315.52
2023-04-12T06:02:00.721Z,98314.34
2023-04-12T06:07:05.649Z,98308.60
2023-04-12T06:12:07.471Z,98293.55
2023-04-12T06:17:11.374Z,98288.73
2023-04-12T06:22:15.717Z,98280.40
2023-04-12T06:27:20.685Z,98271.17
2023-04-12T06:32:23.013Z,98267.06
2023-04-12T06:37:27.065Z,98259.66
2023-04-12T06:42:28.834Z,98257.55
2023-04-12T06:47:32.331Z,98259.45
2023-04-12T06:52:34.234Z,98261.73
2023-04-12T06:57:36.186Z,98259.89
2023-04-12T07:02:39.058Z,98261.38
2023-04-12T07:07:41.251Z,98262.60
2023-04-12T07:12:43.028Z,98259.23
2023-04-12T07:17:45.368Z,98258.13
2023-04-12T07:22:47.217Z,98255.05
2023-04-12T07:27:51.568Z,98258.84
2023-04-12T07:32:58.434Z,98258.89
2023-04-12T07:38:04.644Z,98256.06
2023-04-12T07:43:06.497Z,98253.08
2023-04-12T07:48:08.588Z,98249.69
2023-04-12T07:53:22.302Z,98247.70
2023-04-12T07:58:25.059Z,98243.69
2023-04-12T08:03:27.288Z,98229.52
2023-04-12T08:08:29.516Z,98235.16
2023-04-12T08:13:31.498Z,98236.83
2023-04-12T08:18:33.548Z,98238.41
2023-04-12T08:23:35.376Z,98232.61
2023-04-12T08:28:39.710Z,98228.42
2023-04-12T08:33:41.835Z,98224.30
2023-04-12T08:38:46.057Z,98223.66
2023-04-12T08:43:48.900Z,98222.03
2023-04-12T08:48:56.241Z,98214.23
2023-04-12T08:53:59.364Z,98207.98
2023-04-12T08:59:03.044Z,98212.23
2023-04-12T09:04:08.311Z,98200.10
2023-04-12T09:09:11.221Z,98192.05
2023-04-12T09:14:24.075Z,98183.48
2023-04-12T09:19:41.141Z,98182.88
2023-04-12T09:24:50.614Z,98175.14
2023-04-12T09:30:06.975Z,98170.73
2023-04-12T09:35:09.783Z,98167.65
2023-04-12T09:40:13.053Z,98163.06
2023-04-12T09:45:24.409Z,98155.20
2023-04-12T09:50:33.639Z,98151.17
2023-04-12T09:55:35.910Z,98145.20
2023-04-12T10:00:38.648Z,98137.51
2023-04-12T10:05:42.355Z,98133.98
2023-04-12T10:10:46.481Z,98128.33
2023-04-12T10:15:51.033Z,98124.09
2023-04-12T10:20:53.650Z,98117.96
2023-04-12T10:25:57.112Z,98113.48
2023-04-12T10:31:00.747Z,98113.11
2023-04-12T10:36:06.911Z,98110.94
2023-04-12T10:41:16.447Z,98112.73
2023-04-12T10:46:40.257Z,98105.98
2023-04-12T10:52:21.260Z,98095.98
2023-04-12T11:03:08.916Z,98078.56
2023-04-12T11:08:12.290Z,98077.73
2023-04-12T11:13:15.010Z,98074.19
2023-04-12T11:18:17.617Z,98068.84
2023-04-12T11:23:19.789Z,98068.29
2023-04-12T11:28:28.717Z,98065.97
2023-04-12T11:33:39.816Z,98063.99
2023-04-12T11:38:41.897Z,98059.41
2023-04-12T11:43:45.350Z,98058.83
2023-04-12T11:48:47.248Z,98051.80
2023-04-12T11:53:53.789Z,98047.09
2023-04-12T11:58:55.892Z,98041.60
2023-04-12T12:04:02.737Z,98031.10
2023-04-12T12:09:06.213Z,98019.48
2023-04-12T12:14:08.613Z,98015.58
2023-04-12T12:19:10.535Z,98007.86
2023-04-12T12:24:14.827Z,98002.33
2023-04-12T12:29:22.062Z,97991.79
2023-04-12T12:34:24.767Z,97989.16
2023-04-12T12:39:26.909Z,97982.94
2023-04-12T12:44:29.346Z,97986.61
2023-04-12T12:49:31.359Z,97982.11
2023-04-12T12:54:41.159Z,97974.16
2023-04-12T12:59:44.208Z,97966.20
2023-04-12T13:04:47.262Z,97954.77
2023-04-12T13:09:49.749Z,97946.85
2023-04-12T13:14:57.910Z,97939.91
2023-04-12T13:20:07.046Z,97934.02
2023-04-12T13:25:10.003Z,97930.59
2023-04-12T13:30:12.003Z,97929.87
2023-04-12T13:35:14.814Z,97925.04
2023-04-12T13:40:17.182Z,97917.73
2023-04-12T13:45:19.104Z,97910.89
2023-04-12T13:50:21.027Z,97903.19
2023-04-12T13:55:23.130Z,97898.86
2023-04-12T14:00:25.170Z,97897.39
2023-04-12T14:05:27.455Z,97897.02
2023-04-12T14:10:29.402Z,97888.67
2023-04-12T14:15:31.307Z,97883.59
2023-04-12T14:20:33.143Z,97883.00
2023-04-12T14:25:37.549Z,97881.30
2023-04-12T14:30:39.377Z,97877.86
2023-04-12T14:35:41.516Z,97878.77
2023-04-12T14:40:43.785Z,97874.73
2023-04-12T14:45:45.747Z,97874.34
2023-04-12T14:50:47.927Z,97869.70
2023-04-12T14:55:49.834Z,97857.55
2023-04-12T15:00:51.763Z,97852.13
2023-04-12T15:05:54.170Z,97851.73
2023-04-12T15:10:56.069Z,97845.61
2023-04-12T15:15:58.785Z,97843.77
2023-04-12T15:21:03.086Z,97842.08
2023-04-12T15:26:09.189Z,97837.44
2023-04-12T15:31:12.052Z,97830.44
2023-04-12T15:36:16.873Z,97832.77
2023-04-12T15:41:19.262Z,97834.65
2023-04-12T15:46:21.635Z,97828.04
2023-04-12T15:51:24.115Z,97823.69
2023-04-12T15:56:26.505Z,97821.47
2023-04-12T16:01:28.662Z,97818.89
2023-04-12T16:06:34.764Z,97811.42
2023-04-12T16:11:36.682Z,97806.52
2023-04-12T16:16:40.484Z,97808.45
2023-04-12T16:21:44.577Z,97804.29
2023-04-12T16:26:48.108Z,97799.76
2023-04-12T16:31:51.757Z,97796.82
2023-04-12T16:36:53.934Z,97790.70
2023-04-12T16:41:56.178Z,97777.54
2023-04-12T16:46:58.295Z,97769.65
2023-04-12T16:52:01.515Z,97769.90
2023-04-12T16:57:04.161Z,97766.28
2023-04-12T17:02:07.852Z,97763.70
2023-04-12T17:07:11.185Z,97762.69
2023-04-12T17:12:13.037Z,97761.98
2023-04-12T17:17:15.518Z,97758.23
2023-04-12T17:22:19.330Z,97759.52
2023-04-12T17:27:22.247Z,97763.58
2023-04-12T17:32:24.128Z,97768.45
2023-04-12T17:37:27.877Z,97775.77
2023-04-12T17:42:30.047Z,97779.11
2023-04-12T17:47:35.703Z,97779.13
2023-04-12T17:52:37.904Z,97783.42
2023-04-12T17:57:42.180Z,97779.35
2023-04-12T18:02:46.176Z,97780.54
2023-04-12T18:07:48.763Z,97784.95
2023-04-12T18:12:51.149Z,97786.20
2023-04-12T18:17:53.375Z,97784.72
2023-04-12T18:22:55.300Z,97783.48
2023-04-12T18:27:57.576Z,97778.42
2023-04-12T18:33:00.984Z,97771.48
2023-04-12T18:38:05.237Z,97777.79
2023-04-12T18:43:08.210Z,97785.76
2023-04-12T18:48:10.896Z,97787.70
2023-04-12T18:53:13.030Z,97792.55
2023-04-12T18:58:16.572Z,97789.66
2023-04-12T19:03:18.951Z,97791.09
2023-04-12T19:08:22.605Z,97789.08
2023-04-12T19:13:24.563Z,97791.80
2023-04-12T19:18:30.288Z,97798.94
2023-04-12T19:23:35.304Z,97796.71
2023-04-12T19:28:38.023Z,97798.50
2023-04-12T19:33:41.528Z,97797.45
2023-04-12T19:38:44.243Z,97794.99
2023-04-12T19:43:48.243Z,97789.28
2023-04-12T19:48:51.387Z,97784.91
2023-04-12T19:53:54.881Z,97770.58
2023-04-12T19:58:58.147Z,97766.45
2023-04-12T20:04:00.334Z,97764.20
2023-04-12T20:09:02.883Z,97764.48
2023-04-12T20:14:08.365Z,97762.44
2023-04-12T20:19:10.419Z,97760.65
2023-04-12T20:24:12.924Z,97759.96
2023-04-12T20:29:16.365Z,97761.94
2023-04-12T20:34:19.293Z,97760.60
2023-04-12T20:39:23.235Z,97751.84
2023-04-12T20:44:27.905Z,97746.34
2023-04-12T20:49:31.193Z,97741.40
2023-04-12T20:54:34.202Z,97740.96
2023-04-12T20:59:36.296Z,97738.26
2023-04-12T21:04:41.308Z,97735.30
2023-04-12T21:09:44.375Z,97732.48
2023-04-12T21:15:11.850Z,97734.84
2023-04-12T21:20:14.087Z,97729.27
2023-04-12T21:25:17.139Z,97728.05
2023-04-12T21:30:19.169Z,97730.29
2023-04-12T21:35:26.308Z,97725.61
2023-04-12T21:40:28.689Z,97723.35
2023-04-12T21:45:50.693Z,97729.77
2023-04-12T21:50:54.545Z,97721.59
2023-04-12T21:55:57.232Z,97716.84
2023-04-12T22:00:59.264Z,97717.04
2023-04-12T22:06:04.766Z,97712.01
2023-04-12T22:11:07.593Z,97716.83
2023-04-12T22:16:13.950Z,97723.42
2023-04-12T22:21:16.596Z,97717.80
2023-04-12T22:26:18.431Z,97710.76
2023-04-12T22:31:22.960Z,97707.25
2023-04-12T22:36:28.636Z,97703.73
2023-04-12T22:41:32.983Z,97701.36
2023-04-12T22:46:39.405Z,97693.59
2023-04-12T22:51:42.766Z,97687.98
2023-04-12T22:56:47.774Z,97683.14
2023-04-12T23:01:50.362Z,97668.84
2023-04-12T23:06:56.899Z,97656.42
2023-04-12T23:12:00.246Z,97652.41
2023-04-12T23:17:03.437Z,97652.92
2023-04-12T23:22:06.208Z,97647.31
2023-04-12T23:27:07.991Z,97644.70
2023-04-12T23:32:10.489Z,97645.98
2023-04-12T23:37:12.775Z,97634.79
2023-04-12T23:42:23.687Z,97625.86
2023-04-12T23:47:26.066Z,97613.19
2023-04-12T23:52:48.465Z,97616.25
2023-04-12T23:57:50.310Z,97604.48
